Time;durP1;ratioP1;P1;durP2;ratioP2;P2;SDS_P1;SDS_P2;PMS_P1;PMS_P2;Temp;Humidity;BMP_temperature;BMP_pressure;BME280_temperature;BME280_humidity;BME280_pressure;Samples;Min_cycle;Max_cycle;Signal;HPM_P1;HPM_P2
2022/01/26 00:00:20;;;;;;;1.47;1.30;;;4.20;99.90;;;;;;5074865;28;20419;-72
2022/01/26 00:06:16;;;;;;;0.80;0.70;;;4.20;99.90;;;;;;5075721;28;20423;-73
2022/01/26 00:09:04;;;;;;;5.33;2.10;;;4.20;99.90;;;;;;5079016;28;20452;-73
2022/01/26 00:11:53;;;;;;;0.50;0.50;;;4.20;99.90;;;;;;5096459;28;20439;-73
2022/01/26 00:14:42;;;;;;;3.23;1.23;;;4.20;99.90;;;;;;5091995;28;20435;-73
2022/01/26 00:17:31;;;;;;;2.67;1.80;;;4.20;99.90;;;;;;5076583;28;20501;-72
2022/01/26 00:20:23;;;;;;;2.23;0.50;;;4.20;99.90;;;;;;5075680;28;20435;-73
2022/01/26 00:23:32;;;;;;;1.57;1.47;;;4.20;99.90;;;;;;5074478;28;20510;-73
2022/01/26 00:26:26;;;;;;;0.40;0.40;;;4.20;99.90;;;;;;5055106;28;20448;-73
2022/01/26 00:29:15;;;;;;;3.40;1.90;;;4.20;99.90;;;;;;5055805;28;20444;-73
2022/01/26 00:38:35;;;;;;;0.60;0.60;;;4.20;99.90;;;;;;5012774;28;20449;-73
2022/01/26 00:41:33;;;;;;;5.37;1.33;;;4.20;99.90;;;;;;5012871;28;20422;-73
2022/01/26 00:44:20;;;;;;;0.57;0.57;;;4.20;99.90;;;;;;5053282;28;20432;-73
2022/01/26 00:47:07;;;;;;;2.30;2.10;;;4.10;99.90;;;;;;5055335;28;20416;-73
2022/01/26 00:49:58;;;;;;;1.63;1.13;;;4.20;99.90;;;;;;5054365;28;20495;-73
2022/01/26 00:52:53;;;;;;;0.40;0.40;;;4.20;99.90;;;;;;5055226;28;20417;-73
2022/01/26 00:55:40;;;;;;;2.83;0.70;;;4.20;99.90;;;;;;5054313;28;20957;-73
2022/01/26 00:58:27;;;;;;;1.00;0.70;;;4.20;99.90;;;;;;5054221;28;20501;-73
2022/01/26 01:01:15;;;;;;;7.23;1.53;;;4.20;99.90;;;;;;5055486;28;20416;-73
2022/01/26 01:04:02;;;;;;;0.40;0.40;;;4.20;99.90;;;;;;5055120;28;20440;-73
2022/01/26 01:06:54;;;;;;;0.40;0.40;;;4.30;99.90;;;;;;5055306;28;20419;-73
2022/01/26 01:09:42;;;;;;;2.43;2.10;;;4.20;99.90;;;;;;5063712;28;20452;-73
2022/01/26 01:12:30;;;;;;;0.40;0.40;;;4.20;99.90;;;;;;5054520;28;20792;-73
2022/01/26 01:15:18;;;;;;;0.80;0.80;;;4.20;99.90;;;;;;5053695;28;20420;-73
2022/01/26 01:18:11;;;;;;;0.40;0.40;;;4.20;99.90;;;;;;5053579;28;20436;-73
2022/01/26 01:21:27;;;;;;;1.53;1.43;;;4.20;99.90;;;;;;5054374;28;20420;-73
2022/01/26 01:30:38;;;;;;;1.47;0.80;;;4.20;99.90;;;;;;5073149;28;20426;-73
2022/01/26 01:33:31;;;;;;;1.47;0.93;;;4.20;99.90;;;;;;5095539;28;20423;-73
2022/01/26 01:36:20;;;;;;;1.83;1.40;;;4.20;99.90;;;;;;5096014;28;20408;-73
2022/01/26 01:39:08;;;;;;;0.97;0.97;;;4.20;99.90;;;;;;5095233;28;20467;-73
2022/01/26 01:41:56;;;;;;;3.60;2.27;;;4.30;99.90;;;;;;5073172;28;20509;-73
2022/01/26 01:44:44;;;;;;;0.80;0.80;;;4.20;99.90;;;;;;5073963;28;20843;-73
2022/01/26 01:47:31;;;;;;;2.33;1.53;;;4.20;99.90;;;;;;5072849;28;20943;-73
2022/01/26 01:50:18;;;;;;;3.63;1.63;;;4.20;99.90;;;;;;5073216;28;20791;-73
2022/01/26 01:53:05;;;;;;;1.43;1.27;;;4.10;99.90;;;;;;5075797;28;20927;-73
2022/01/26 01:55:52;;;;;;;5.60;3.10;;;4.20;99.90;;;;;;5076305;28;20431;-73
2022/01/26 01:58:40;;;;;;;2.90;2.47;;;4.10;99.90;;;;;;5073302;28;20447;-72
2022/01/26 02:01:28;;;;;;;0.67;0.67;;;4.10;99.90;;;;;;5073556;28;20420;-73
2022/01/26 02:04:15;;;;;;;1.80;0.93;;;4.10;99.90;;;;;;5073035;28;20471;-73
2022/01/26 02:07:02;;;;;;;0.60;0.60;;;4.10;99.90;;;;;;5072991;28;20423;-73
2022/01/26 02:09:49;;;;;;;4.30;3.90;;;4.10;99.90;;;;;;5073683;28;20431;-73
2022/01/26 02:12:40;;;;;;;1.90;1.80;;;4.10;99.90;;;;;;5073046;28;20947;-73
2022/01/26 02:15:33;;;;;;;4.43;1.73;;;4.10;99.90;;;;;;5073780;28;20431;-72
2022/01/26 02:21:42;;;;;;;0.60;0.60;;;4.10;99.90;;;;;;5072491;28;20428;-73
2022/01/26 02:49:51;;;;;;;3.23;2.40;;;3.90;99.90;;;;;;5074174;28;20955;-73
2022/01/26 02:52:59;;;;;;;0.40;0.40;;;3.90;99.90;;;;;;5073264;28;20420;-73
2022/01/26 02:55:49;;;;;;;5.33;3.30;;;4.00;99.90;;;;;;5072165;28;20423;-73
2022/01/26 02:58:59;;;;;;;3.63;1.13;;;4.00;99.90;;;;;;5072689;28;20748;-73
2022/01/26 03:01:53;;;;;;;0.90;0.90;;;3.90;99.90;;;;;;5071911;28;20424;-73
2022/01/26 03:04:43;;;;;;;3.43;2.97;;;3.90;99.90;;;;;;5072367;28;20423;-73
2022/01/26 03:07:40;;;;;;;1.13;1.13;;;3.90;99.90;;;;;;5072478;28;20415;-73
2022/01/26 03:10:37;;;;;;;0.70;0.70;;;3.80;99.90;;;;;;5071536;28;20415;-73
2022/01/26 03:13:28;;;;;;;4.53;3.13;;;3.80;99.90;;;;;;5083039;28;20418;-73
2022/01/26 03:16:21;;;;;;;8.70;2.50;;;3.80;99.90;;;;;;5077579;28;21037;-73
2022/01/26 03:19:18;;;;;;;0.40;0.40;;;3.70;99.90;;;;;;5074441;28;20525;-73
2022/01/26 03:28:08;;;;;;;1.60;1.50;;;3.70;99.90;;;;;;5075762;28;20415;-73
2022/01/26 03:28:41;;;;;;;0.50;0.50;;;3.70;99.90;;;;;;5075530;28;20427;-73
2022/01/26 03:34:32;;;;;;;0.70;0.70;;;3.60;99.90;;;;;;5073673;28;20442;-73
2022/01/26 03:37:22;;;;;;;2.30;2.20;;;3.70;99.90;;;;;;5076675;28;20931;-73
2022/01/26 03:40:14;;;;;;;0.60;0.60;;;3.60;99.90;;;;;;5076090;28;20772;-73
2022/01/26 03:43:01;;;;;;;3.00;1.90;;;3.70;99.90;;;;;;5075264;28;20463;-72
2022/01/26 03:45:50;;;;;;;2.20;1.23;;;3.70;99.90;;;;;;5075815;28;20428;-73
2022/01/26 03:48:37;;;;;;;0.73;0.73;;;3.70;99.90;;;;;;5075604;28;20979;-73
2022/01/26 03:51:24;;;;;;;4.40;1.87;;;3.60;99.90;;;;;;5074518;28;20477;-73
2022/01/26 03:54:13;;;;;;;1.80;1.20;;;3.60;99.90;;;;;;5076420;28;20419;-73
2022/01/26 03:57:00;;;;;;;0.40;0.40;;;3.60;99.90;;;;;;5079014;28;20424;-73
2022/01/26 03:59:47;;;;;;;0.40;0.40;;;3.70;99.90;;;;;;5096975;28;20435;-73
2022/01/26 04:02:36;;;;;;;0.40;0.40;;;3.70;99.90;;;;;;5091951;28;20477;-73
2022/01/26 04:05:25;;;;;;;0.80;0.80;;;3.70;99.90;;;;;;5075782;28;20951;-73
2022/01/26 04:08:16;;;;;;;1.27;1.27;;;3.70;99.90;;;;;;5075473;28;20967;-73
2022/01/26 04:11:18;;;;;;;0.40;0.40;;;3.70;99.90;;;;;;5075142;28;20833;-73
2022/01/26 04:14:08;;;;;;;0.40;0.40;;;3.70;99.90;;;;;;5075555;28;20429;-73
2022/01/26 04:16:55;;;;;;;0.47;0.47;;;3.70;99.90;;;;;;5075350;28;20427;-73
2022/01/26 04:19:45;;;;;;;0.40;0.40;;;3.70;99.90;;;;;;5075350;28;20482;-73
2022/01/26 04:22:38;;;;;;;0.40;0.40;;;3.70;99.90;;;;;;5075126;28;20543;-73
2022/01/26 04:25:26;;;;;;;1.67;0.80;;;3.70;99.90;;;;;;5075084;28;20494;-73
2022/01/26 04:28:18;;;;;;;5.07;2.63;;;3.60;99.90;;;;;;5074430;28;20522;-73
2022/01/26 04:31:05;;;;;;;1.17;0.53;;;3.60;99.90;;;;;;5075437;28;20799;-73
2022/01/26 04:33:53;;;;;;;3.50;1.57;;;3.50;99.90;;;;;;5074964;28;20430;-73
2022/01/26 04:36:46;;;;;;;2.00;0.97;;;3.50;99.90;;;;;;5074293;28;20942;-73
2022/01/26 04:39:43;;;;;;;2.10;1.30;;;3.50;99.90;;;;;;5073453;28;20487;-73
2022/01/26 04:42:39;;;;;;;0.40;0.40;;;3.50;99.90;;;;;;5075057;28;20428;-73
2022/01/26 04:45:26;;;;;;;0.40;0.40;;;3.50;99.90;;;;;;5073926;28;20481;-73
2022/01/26 04:48:13;;;;;;;0.63;0.63;;;3.50;99.90;;;;;;5074642;28;20458;-73
2022/01/26 04:51:00;;;;;;;3.43;0.97;;;3.50;99.90;;;;;;5074915;28;20780;-73
2022/01/26 04:53:48;;;;;;;0.40;0.40;;;3.50;99.90;;;;;;5073602;28;20893;-73
2022/01/26 04:56:35;;;;;;;0.40;0.40;;;3.50;99.90;;;;;;5073786;28;20458;-73
2022/01/26 04:59:22;;;;;;;1.17;0.57;;;3.50;99.90;;;;;;5074169;28;20451;-73
2022/01/26 05:02:09;;;;;;;11.80;1.53;;;3.40;99.90;;;;;;5074718;28;20428;-72
2022/01/26 05:04:56;;;;;;;1.07;0.80;;;3.40;99.90;;;;;;5074554;28;20471;-73
2022/01/26 05:07:43;;;;;;;0.83;0.80;;;3.40;99.90;;;;;;5074919;28;20911;-72
2022/01/26 05:10:32;;;;;;;0.40;0.40;;;3.40;99.90;;;;;;5073807;28;20419;-73
2022/01/26 05:13:19;;;;;;;0.80;0.60;;;3.40;99.90;;;;;;5074726;28;20782;-72
2022/01/26 05:16:08;;;;;;;1.07;0.60;;;3.40;99.90;;;;;;5074131;28;20431;-72
2022/01/26 05:18:56;;;;;;;2.63;1.73;;;3.40;99.90;;;;;;5081557;28;20451;-72
2022/01/26 05:21:43;;;;;;;0.60;0.60;;;3.40;99.90;;;;;;5082019;28;20532;-72
2022/01/26 05:24:30;;;;;;;0.40;0.40;;;3.40;99.90;;;;;;5074533;28;20885;-72
2022/01/26 05:27:18;;;;;;;0.40;0.40;;;3.40;99.90;;;;;;5073896;28;20450;-72
2022/01/26 05:30:07;;;;;;;0.67;0.67;;;3.30;99.90;;;;;;5073164;28;20913;-72
2022/01/26 05:32:54;;;;;;;0.40;0.40;;;3.40;99.90;;;;;;5072959;28;20423;-72
2022/01/26 05:35:42;;;;;;;0.40;0.40;;;3.40;99.90;;;;;;5073007;28;20427;-73
2022/01/26 05:38:29;;;;;;;2.10;2.00;;;3.30;99.90;;;;;;5091838;22;21028;-71
2022/01/26 05:41:16;;;;;;;0.40;0.40;;;3.50;99.90;;;;;;5053143;28;20416;-70
2022/01/26 05:44:05;;;;;;;0.63;0.63;;;3.40;99.90;;;;;;5061339;28;20510;-70
2022/01/26 05:46:51;;;;;;;0.40;0.40;;;3.40;99.90;;;;;;5054254;28;20423;-70
2022/01/26 05:49:38;;;;;;;0.80;0.50;;;3.40;99.90;;;;;;5067107;28;20538;-70
2022/01/26 05:52:25;;;;;;;0.40;0.40;;;3.50;99.90;;;;;;5056826;28;20432;-70
2022/01/26 05:55:12;;;;;;;0.40;0.40;;;3.40;99.90;;;;;;5054927;28;20466;-70
2022/01/26 05:57:59;;;;;;;0.40;0.40;;;3.40;99.90;;;;;;5055590;28;20420;-71
2022/01/26 06:00:48;;;;;;;1.13;1.13;;;3.40;99.90;;;;;;5053878;28;20471;-70
2022/01/26 06:03:35;;;;;;;0.50;0.50;;;3.50;99.90;;;;;;5052022;28;20475;-70
2022/01/26 06:06:22;;;;;;;0.40;0.40;;;3.60;99.90;;;;;;5053125;28;20431;-70
2022/01/26 06:09:09;;;;;;;0.40;0.40;;;3.40;99.90;;;;;;5052241;28;20445;-70
2022/01/26 06:11:56;;;;;;;1.23;0.80;;;3.50;99.90;;;;;;5053379;28;20514;-70
2022/01/26 06:14:43;;;;;;;0.40;0.40;;;3.50;99.90;;;;;;5052241;28;20936;-70
2022/01/26 06:17:31;;;;;;;1.80;0.97;;;3.40;99.90;;;;;;5051771;28;20433;-70
2022/01/26 06:20:18;;;;;;;0.47;0.47;;;3.50;99.90;;;;;;5051640;28;20494;-70
2022/01/26 06:23:06;;;;;;;0.40;0.40;;;3.40;99.90;;;;;;5051749;28;20428;-70
2022/01/26 06:25:54;;;;;;;0.70;0.70;;;3.40;99.90;;;;;;5051784;28;20415;-69
2022/01/26 06:28:41;;;;;;;0.40;0.40;;;3.50;99.90;;;;;;5052251;28;20900;-70
2022/01/26 06:31:28;;;;;;;2.53;1.17;;;3.50;99.90;;;;;;5052659;28;20424;-69
2022/01/26 06:34:17;;;;;;;0.73;0.73;;;3.40;99.90;;;;;;5052294;28;20808;-69
2022/01/26 06:37:04;;;;;;;1.10;1.00;;;3.40;99.90;;;;;;5052528;28;20424;-70
2022/01/26 06:39:51;;;;;;;0.40;0.40;;;3.40;99.90;;;;;;5051644;28;20460;-70
2022/01/26 06:42:50;;;;;;;0.97;0.97;;;3.50;99.90;;;;;;5049736;28;20456;-70
2022/01/26 06:45:43;;;;;;;1.47;1.43;;;3.40;99.90;;;;;;5052436;28;20427;-70
2022/01/26 06:48:46;;;;;;;0.50;0.50;;;3.40;99.90;;;;;;5052000;28;20440;-69
2022/01/26 06:51:34;;;;;;;7.77;0.87;;;3.40;99.90;;;;;;5053478;28;20428;-69
2022/01/26 06:54:22;;;;;;;0.50;0.50;;;3.40;99.90;;;;;;5056420;28;20442;-70
2022/01/26 06:57:09;;;;;;;0.40;0.40;;;3.30;99.90;;;;;;5054718;28;20547;-70
2022/01/26 06:59:55;;;;;;;2.30;0.93;;;3.40;99.90;;;;;;5055494;28;20530;-72
2022/01/26 07:02:42;;;;;;;2.37;1.10;;;3.50;99.90;;;;;;5055466;28;20920;-70
2022/01/26 07:05:29;;;;;;;0.40;0.40;;;3.50;99.90;;;;;;5055774;28;20468;-71
2022/01/26 07:08:17;;;;;;;0.40;0.40;;;3.50;99.90;;;;;;5055742;28;20443;-71
2022/01/26 07:11:04;;;;;;;0.40;0.40;;;3.50;99.90;;;;;;5056400;28;20460;-70
2022/01/26 07:13:53;;;;;;;0.40;0.40;;;3.50;99.90;;;;;;5056156;28;20466;-69
2022/01/26 07:19:53;;;;;;;4.20;1.93;;;3.40;99.90;;;;;;5052408;28;20451;-71
2022/01/26 07:22:40;;;;;;;0.70;0.70;;;3.40;99.90;;;;;;5054722;28;20959;-70
2022/01/26 07:25:28;;;;;;;0.70;0.70;;;3.50;99.90;;;;;;5055959;28;20471;-70
2022/01/26 07:28:16;;;;;;;0.40;0.40;;;3.40;99.90;;;;;;5055906;28;20602;-71
2022/01/26 07:31:04;;;;;;;1.17;0.77;;;3.40;99.90;;;;;;5055088;28;20826;-70
2022/01/26 07:33:54;;;;;;;0.40;0.40;;;3.30;99.90;;;;;;5055941;28;20815;-71
2022/01/26 07:36:42;;;;;;;1.50;0.90;;;3.30;99.90;;;;;;5056396;28;20428;-70
2022/01/26 07:39:41;;;;;;;0.40;0.40;;;3.30;99.90;;;;;;5055626;28;20827;-70
2022/01/26 07:42:29;;;;;;;0.40;0.40;;;3.40;99.90;;;;;;5055660;28;20428;-70
2022/01/26 07:45:17;;;;;;;0.50;0.50;;;3.40;99.90;;;;;;5055393;28;20549;-70
2022/01/26 07:48:04;;;;;;;1.13;1.13;;;3.50;99.90;;;;;;5055150;28;20420;-70
2022/01/26 07:50:52;;;;;;;1.03;1.03;;;3.50;99.90;;;;;;5054933;28;20424;-70
2022/01/26 07:53:39;;;;;;;1.20;1.10;;;3.50;99.90;;;;;;5055060;28;20425;-70
2022/01/26 07:56:26;;;;;;;9.23;2.20;;;3.70;99.90;;;;;;5055162;28;20439;-70
2022/01/26 07:59:15;;;;;;;0.50;0.50;;;3.60;99.90;;;;;;5054933;28;20444;-70
2022/01/26 08:02:02;;;;;;;0.40;0.40;;;3.60;99.90;;;;;;5055256;28;20506;-70
2022/01/26 08:04:50;;;;;;;7.33;3.83;;;3.70;99.90;;;;;;5053681;28;20451;-70
2022/01/26 08:07:36;;;;;;;0.67;0.67;;;3.50;99.90;;;;;;5054974;28;20475;-70
2022/01/26 08:10:23;;;;;;;5.13;2.70;;;3.50;99.90;;;;;;5054724;28;20478;-70
2022/01/26 08:13:10;;;;;;;0.40;0.40;;;3.40;99.90;;;;;;5055557;28;20447;-70
2022/01/26 08:15:58;;;;;;;2.60;2.50;;;3.40;99.90;;;;;;5055018;28;20508;-70
2022/01/26 08:18:45;;;;;;;0.50;0.50;;;3.40;99.90;;;;;;5054796;28;20545;-70
2022/01/26 08:21:32;;;;;;;0.43;0.43;;;3.40;99.90;;;;;;5054826;28;20420;-69
2022/01/26 08:24:19;;;;;;;0.50;0.50;;;3.50;99.90;;;;;;5054667;28;20468;-70
2022/01/26 08:27:10;;;;;;;5.90;5.33;;;3.50;99.90;;;;;;5054171;28;20436;-70
2022/01/26 08:30:04;;;;;;;1.47;1.37;;;3.50;99.90;;;;;;5054250;28;20824;-70
2022/01/26 08:32:54;;;;;;;2.10;1.50;;;3.60;99.90;;;;;;5054756;28;20468;-70
2022/01/26 08:35:42;;;;;;;0.50;0.50;;;3.70;99.90;;;;;;5053166;28;20499;-70
2022/01/26 08:38:29;;;;;;;0.40;0.40;;;3.70;99.90;;;;;;5054532;28;20468;-70
2022/01/26 08:41:16;;;;;;;0.40;0.40;;;3.70;99.90;;;;;;5054180;28;20424;-70
2022/01/26 08:44:03;;;;;;;0.70;0.70;;;3.80;99.90;;;;;;5053983;28;20452;-70
2022/01/26 08:46:51;;;;;;;2.03;1.80;;;3.90;99.90;;;;;;5054339;28;20432;-70
2022/01/26 08:49:39;;;;;;;1.40;1.33;;;3.90;99.90;;;;;;5053913;28;20450;-70
2022/01/26 08:52:26;;;;;;;1.73;1.53;;;3.90;99.90;;;;;;5054185;28;20505;-70
2022/01/26 08:55:13;;;;;;;1.23;1.13;;;3.90;99.90;;;;;;5054496;28;20424;-70
2022/01/26 08:58:00;;;;;;;3.93;2.43;;;4.00;99.90;;;;;;5053538;28;20431;-71
2022/01/26 09:00:47;;;;;;;3.60;1.80;;;3.80;99.90;;;;;;5053095;28;20792;-70
2022/01/26 09:03:39;;;;;;;1.23;1.23;;;3.80;99.90;;;;;;5053714;28;20521;-70
2022/01/26 09:06:27;;;;;;;2.67;1.03;;;3.90;99.90;;;;;;5053819;28;20431;-70
2022/01/26 09:09:14;;;;;;;0.40;0.40;;;4.00;99.90;;;;;;5053957;28;20490;-70
2022/01/26 09:12:06;;;;;;;3.37;1.53;;;4.00;99.90;;;;;;5054726;28;20929;-70
2022/01/26 09:14:54;;;;;;;3.87;1.73;;;4.00;99.90;;;;;;5053023;28;20412;-70
2022/01/26 09:17:42;;;;;;;1.10;1.10;;;4.00;99.90;;;;;;5052788;28;20427;-69
2022/01/26 09:20:29;;;;;;;0.40;0.40;;;3.90;99.90;;;;;;5052744;28;20515;-70
2022/01/26 09:23:17;;;;;;;0.70;0.60;;;4.00;99.90;;;;;;5053987;28;20792;-70
2022/01/26 09:26:05;;;;;;;1.90;1.80;;;3.90;99.90;;;;;;5034703;28;20488;-70
2022/01/26 09:28:52;;;;;;;1.00;0.90;;;4.00;99.90;;;;;;5036501;28;20456;-70
2022/01/26 09:31:39;;;;;;;0.60;0.60;;;3.90;99.90;;;;;;5054390;28;20420;-69
2022/01/26 09:34:29;;;;;;;5.07;1.47;;;4.00;99.90;;;;;;5062818;28;20425;-70
2022/01/26 09:37:17;;;;;;;1.43;1.43;;;3.90;99.90;;;;;;5065717;28;20644;-73
2022/01/26 09:40:07;;;;;;;0.80;0.80;;;4.00;99.90;;;;;;5068265;28;20460;-70
2022/01/26 09:42:56;;;;;;;1.80;1.70;;;4.10;99.90;;;;;;5065402;28;20498;-70
2022/01/26 09:45:43;;;;;;;2.00;1.27;;;4.10;99.90;;;;;;5072646;28;20514;-70
2022/01/26 09:48:33;;;;;;;1.07;0.80;;;4.20;99.90;;;;;;5071464;28;20511;-69
2022/01/26 09:51:21;;;;;;;0.93;0.80;;;4.20;99.90;;;;;;5071726;28;20439;-71
2022/01/26 09:54:11;;;;;;;8.53;1.93;;;4.40;99.90;;;;;;5067115;28;20474;-70
2022/01/26 09:57:03;;;;;;;0.40;0.40;;;4.40;99.90;;;;;;5069288;28;20429;-70
2022/01/26 09:59:50;;;;;;;3.13;1.53;;;4.40;99.90;;;;;;5049027;28;20440;-69
2022/01/26 10:02:39;;;;;;;2.43;1.83;;;4.50;99.90;;;;;;5049335;28;20432;-70
2022/01/26 10:05:26;;;;;;;4.03;1.67;;;4.40;99.90;;;;;;5071965;28;20468;-71
2022/01/26 10:08:26;;;;;;;1.07;0.50;;;4.40;99.90;;;;;;5051973;28;20445;-70
2022/01/26 10:17:28;;;;;;;5.23;0.70;;;4.20;99.90;;;;;;5053134;28;20433;-70
2022/01/26 10:20:17;;;;;;;0.40;0.40;;;4.30;99.90;;;;;;5052795;28;20445;-70
2022/01/26 10:23:07;;;;;;;0.60;0.60;;;4.30;99.90;;;;;;5051648;28;20451;-70
2022/01/26 10:26:03;;;;;;;1.23;1.23;;;4.40;99.90;;;;;;5039080;28;20475;-70
2022/01/26 10:28:52;;;;;;;0.50;0.50;;;4.50;99.90;;;;;;5042310;28;20808;-70
2022/01/26 10:31:40;;;;;;;3.33;2.43;;;4.60;99.90;;;;;;5056489;28;20460;-69
2022/01/26 10:34:28;;;;;;;4.57;3.70;;;4.50;99.90;;;;;;5062703;28;20436;-70
2022/01/26 10:37:14;;;;;;;0.40;0.40;;;4.50;99.90;;;;;;5063471;28;20416;-69
2022/01/26 10:40:12;;;;;;;6.43;2.10;;;4.60;99.90;;;;;;5061216;28;20536;-71
2022/01/26 10:43:03;;;;;;;0.40;0.40;;;4.70;99.90;;;;;;5061733;28;20847;-69
2022/01/26 10:45:59;;;;;;;1.20;0.87;;;4.60;99.90;;;;;;5062914;28;20467;-70
2022/01/26 10:49:05;;;;;;;3.13;2.73;;;4.50;99.90;;;;;;5061250;28;20527;-70
2022/01/26 10:51:56;;;;;;;2.40;2.20;;;4.40;99.90;;;;;;5059764;28;20435;-70
2022/01/26 10:54:43;;;;;;;1.00;0.70;;;4.40;99.90;;;;;;5059687;28;20420;-70
2022/01/26 10:57:29;;;;;;;0.40;0.40;;;4.40;99.90;;;;;;5059312;28;20415;-70
2022/01/26 11:00:16;;;;;;;0.40;0.40;;;4.60;99.90;;;;;;5060313;28;20803;-69
2022/01/26 11:03:04;;;;;;;2.23;2.13;;;4.70;99.90;;;;;;5060571;28;20516;-70
2022/01/26 11:05:53;;;;;;;0.50;0.50;;;4.70;99.90;;;;;;5060174;28;20467;-70
2022/01/26 11:08:41;;;;;;;2.70;2.50;;;4.50;99.90;;;;;;5058836;28;20440;-70
2022/01/26 11:11:28;;;;;;;2.40;2.30;;;4.50;99.90;;;;;;5058965;28;20436;-70
2022/01/26 11:14:21;;;;;;;5.60;1.70;;;4.50;99.90;;;;;;5058396;28;20436;-69
2022/01/26 11:17:10;;;;;;;2.87;2.30;;;4.50;99.90;;;;;;5059139;28;20824;-69
2022/01/26 11:19:58;;;;;;;0.97;0.77;;;4.40;99.90;;;;;;5057617;28;20440;-69
2022/01/26 11:22:52;;;;;;;7.43;2.60;;;4.30;99.90;;;;;;5057554;28;20435;-70
2022/01/26 11:25:45;;;;;;;0.50;0.50;;;4.10;99.90;;;;;;5057224;28;20460;-69
2022/01/26 11:28:32;;;;;;;3.80;3.07;;;3.90;99.90;;;;;;5058342;28;20444;-69
2022/01/26 11:31:20;;;;;;;2.97;2.10;;;3.80;99.90;;;;;;5059408;28;20428;-70
2022/01/26 11:34:09;;;;;;;0.50;0.50;;;3.70;99.90;;;;;;5058179;28;20550;-70
2022/01/26 11:36:59;;;;;;;1.80;1.70;;;3.70;99.90;;;;;;5059790;28;20482;-69
2022/01/26 11:46:20;;;;;;;0.40;0.40;;;3.70;99.90;;;;;;5057756;28;20460;-70
2022/01/26 11:49:11;;;;;;;0.40;0.40;;;3.60;99.90;;;;;;5057538;28;20452;-72
2022/01/26 11:51:57;;;;;;;2.60;1.10;;;3.60;99.90;;;;;;5062117;28;20436;-70
2022/01/26 11:54:51;;;;;;;0.50;0.50;;;3.50;99.90;;;;;;5068656;28;20446;-70
2022/01/26 11:57:43;;;;;;;1.03;0.53;;;3.40;99.90;;;;;;5069035;28;20429;-71
2022/01/26 12:00:40;;;;;;;19.57;4.00;;;3.40;99.90;;;;;;5067154;28;20435;-70
2022/01/26 12:03:31;;;;;;;0.50;0.50;;;3.40;99.90;;;;;;5068694;28;20428;-70
2022/01/26 12:06:28;;;;;;;3.73;1.57;;;3.40;99.90;;;;;;5063317;28;20897;-69
2022/01/26 12:09:16;;;;;;;1.63;1.13;;;3.30;99.90;;;;;;5064871;28;20452;-70
2022/01/26 12:12:05;;;;;;;7.60;3.20;;;3.20;99.90;;;;;;5066635;28;20428;-70
2022/01/26 12:15:06;;;;;;;19.27;2.73;;;3.10;99.90;;;;;;5068779;28;20429;-72
2022/01/26 12:18:02;;;;;;;11.33;2.93;;;3.10;99.90;;;;;;5073459;28;20435;-70
2022/01/26 12:34:01;;;;;;;1.47;1.47;;;3.10;99.90;;;;;;5071857;28;20439;-69
2022/01/26 12:37:04;;;;;;;3.40;1.70;;;3.10;99.90;;;;;;5073761;28;20428;-69
2022/01/26 12:43:05;;;;;;;0.40;0.40;;;3.10;99.90;;;;;;5074062;28;20428;-69
2022/01/26 12:45:55;;;;;;;0.40;0.40;;;3.20;99.90;;;;;;5070844;28;20451;-69
2022/01/26 12:48:49;;;;;;;0.77;0.77;;;3.20;99.90;;;;;;5071256;28;20535;-70
2022/01/26 12:51:41;;;;;;;4.50;2.47;;;3.20;99.90;;;;;;5072225;28;20462;-69
2022/01/26 12:54:28;;;;;;;2.03;0.97;;;3.20;99.90;;;;;;5068913;28;20435;-68
2022/01/26 12:57:15;;;;;;;6.63;2.20;;;3.10;99.90;;;;;;5053339;28;20428;-68
2022/01/26 13:00:04;;;;;;;6.63;2.00;;;3.00;99.90;;;;;;5054523;28;20888;-68
2022/01/26 13:02:53;;;;;;;8.87;3.13;;;2.90;99.90;;;;;;5054415;28;20986;-69
2022/01/26 13:05:40;;;;;;;0.90;0.90;;;2.90;99.90;;;;;;5054632;28;20513;-75
2022/01/26 13:08:27;;;;;;;9.63;4.47;;;2.80;99.90;;;;;;5054090;28;20460;-68
2022/01/26 13:11:23;;;;;;;5.50;3.60;;;2.90;99.90;;;;;;5057147;28;20439;-68
2022/01/26 13:14:14;;;;;;;9.00;3.47;;;2.90;99.90;;;;;;5053306;28;20952;-68
2022/01/26 13:17:11;;;;;;;4.07;2.33;;;2.90;99.90;;;;;;5053568;28;20454;-68
2022/01/26 13:20:15;;;;;;;2.40;2.13;;;2.80;99.90;;;;;;5053267;28;20824;-68
2022/01/26 13:23:25;;;;;;;5.30;2.50;;;2.90;99.90;;;;;;5053637;28;20416;-68
2022/01/26 13:26:20;;;;;;;0.40;0.40;;;2.70;99.90;;;;;;5035443;28;20465;-68
2022/01/26 13:29:20;;;;;;;11.20;4.37;;;2.70;99.90;;;;;;5034607;28;20548;-68
2022/01/26 13:32:42;;;;;;;2.50;2.13;;;2.70;99.90;;;;;;5034121;28;20425;-69
2022/01/26 13:35:47;;;;;;;10.03;4.17;;;2.70;99.90;;;;;;5034472;28;20515;-69
2022/01/26 13:38:48;;;;;;;12.10;5.10;;;2.80;99.90;;;;;;5033805;28;21019;-69
2022/01/26 13:41:43;;;;;;;1.10;1.10;;;2.70;99.90;;;;;;5033345;28;20815;-69
2022/01/26 13:44:52;;;;;;;1.03;1.03;;;2.70;99.90;;;;;;5032839;28;20432;-69
2022/01/26 13:48:02;;;;;;;16.73;2.97;;;2.70;99.90;;;;;;5033730;28;20515;-69
2022/01/26 13:50:56;;;;;;;1.03;1.03;;;2.90;99.90;;;;;;5033492;28;20428;-69
2022/01/26 13:53:53;;;;;;;13.00;2.93;;;2.70;99.90;;;;;;5048874;28;20428;-69
2022/01/26 13:56:53;;;;;;;9.00;3.60;;;2.80;99.90;;;;;;5052144;28;20416;-68
2022/01/26 13:59:45;;;;;;;3.17;2.97;;;2.70;99.90;;;;;;5051427;28;21275;-71
2022/01/26 14:02:33;;;;;;;1.83;1.73;;;2.70;99.90;;;;;;5040389;28;20436;-69
2022/01/26 14:05:20;;;;;;;8.40;4.47;;;2.70;99.90;;;;;;5052670;28;20515;-69
2022/01/26 14:08:09;;;;;;;2.70;2.50;;;2.60;99.90;;;;;;5052173;28;20441;-68
2022/01/26 14:10:57;;;;;;;3.80;2.10;;;2.60;99.90;;;;;;5051857;28;20424;-68
2022/01/26 14:13:45;;;;;;;2.93;1.20;;;2.50;99.90;;;;;;5042930;28;20439;-68
2022/01/26 14:16:38;;;;;;;2.30;2.10;;;2.40;99.90;;;;;;5052567;28;20417;-68
2022/01/26 14:19:32;;;;;;;12.03;4.43;;;2.40;99.90;;;;;;5053579;28;20448;-71
2022/01/26 14:22:34;;;;;;;1.47;1.47;;;2.50;99.90;;;;;;5052206;28;20440;-68
2022/01/26 14:25:27;;;;;;;7.70;3.60;;;2.40;99.90;;;;;;5051907;28;20951;-68
2022/01/26 14:28:16;;;;;;;1.00;1.00;;;2.50;99.90;;;;;;5053374;28;20452;-68
2022/01/26 14:31:28;;;;;;;1.70;0.97;;;2.60;99.90;;;;;;5052525;28;20433;-68
2022/01/26 14:34:49;;;;;;;0.40;0.40;;;2.60;99.90;;;;;;5053641;28;20432;-68
2022/01/26 14:40:58;;;;;;;3.97;3.60;;;2.70;99.90;;;;;;5052044;28;20425;-68
2022/01/26 14:53:59;;;;;;;1.20;1.10;;;2.90;99.90;;;;;;5051204;28;20450;-69
2022/01/26 15:09:31;;;;;;;7.47;2.77;;;2.90;99.90;;;;;;5051385;28;20565;-68
2022/01/26 15:34:23;;;;;;;1.13;1.13;;;2.60;99.90;;;;;;5055605;28;20432;-68
2022/01/26 15:40:26;;;;;;;0.87;0.87;;;2.60;99.90;;;;;;5036834;28;20476;-68
2022/01/26 15:43:38;;;;;;;0.53;0.53;;;2.60;99.90;;;;;;5036910;28;20528;-69
2022/01/26 15:49:48;;;;;;;0.57;0.57;;;2.70;99.90;;;;;;5035815;28;20444;-68
2022/01/26 15:59:01;;;;;;;1.63;1.63;;;2.70;99.90;;;;;;5053592;28;20436;-70
2022/01/26 16:05:20;;;;;;;1.37;1.37;;;2.70;99.90;;;;;;4987592;28;20443;-69
2022/01/26 16:08:13;;;;;;;7.70;3.23;;;2.70;99.90;;;;;;5036250;28;20503;-68
2022/01/26 16:20:50;;;;;;;4.43;3.60;;;2.60;99.90;;;;;;5018439;28;20523;-68
2022/01/26 16:27:10;;;;;;;3.90;2.07;;;2.70;99.90;;;;;;5055780;28;20459;-69
2022/01/26 16:37:22;;;;;;;5.20;2.77;;;2.80;99.90;;;;;;5055060;28;20448;-69
2022/01/26 17:27:14;;;;;;;17.50;6.67;;;2.70;99.90;;;;;;5072646;28;20475;-69
2022/01/26 18:04:13;;;;;;;14.63;5.67;;;2.70;99.90;;;;;;5057672;28;20448;-70
2022/01/26 18:07:18;;;;;;;1.27;1.27;;;2.80;99.90;;;;;;5057104;28;20495;-70
2022/01/26 18:16:26;;;;;;;12.63;4.33;;;2.80;99.90;;;;;;5060441;28;20424;-69
2022/01/26 18:31:58;;;;;;;6.70;6.03;;;3.00;99.90;;;;;;5061888;28;20415;-69
2022/01/26 18:50:08;;;;;;;3.33;3.23;;;3.10;99.90;;;;;;5062083;28;20428;-69
2022/01/26 18:52:54;;;;;;;16.23;3.97;;;3.00;99.90;;;;;;5062374;28;20428;-69
2022/01/26 18:55:42;;;;;;;1.60;1.60;;;3.00;99.90;;;;;;5063050;28;20436;-69
2022/01/26 18:58:29;;;;;;;5.63;3.50;;;3.00;99.90;;;;;;5060913;28;20444;-69
2022/01/26 19:01:16;;;;;;;33.70;11.93;;;3.00;99.90;;;;;;5061207;28;20424;-68
2022/01/26 19:04:03;;;;;;;12.70;5.60;;;3.00;99.90;;;;;;5058901;28;20425;-69
2022/01/26 19:06:53;;;;;;;7.07;3.27;;;2.90;99.90;;;;;;5059273;28;20460;-69
2022/01/26 19:09:43;;;;;;;0.90;0.90;;;2.90;99.90;;;;;;5058054;28;20479;-69
2022/01/26 19:12:33;;;;;;;3.33;2.87;;;3.00;99.90;;;;;;5060165;28;20424;-69
2022/01/26 19:15:24;;;;;;;17.17;5.90;;;3.00;99.90;;;;;;5059398;28;20458;-69
2022/01/26 19:18:17;;;;;;;6.33;5.77;;;3.00;99.90;;;;;;5062089;28;20810;-69
2022/01/26 19:21:12;;;;;;;2.37;2.10;;;3.00;99.90;;;;;;5061658;28;20462;-69
2022/01/26 19:24:14;;;;;;;27.97;9.90;;;3.00;99.90;;;;;;5065222;28;20527;-69
2022/01/26 19:27:13;;;;;;;4.10;1.20;;;3.00;99.90;;;;;;5066492;28;20473;-69
2022/01/26 19:30:49;;;;;;;0.50;0.50;;;3.00;99.90;;;;;;5068451;28;20844;-69
2022/01/26 19:40:00;;;;;;;2.23;2.13;;;3.20;99.90;;;;;;5059238;28;20439;-69
2022/01/26 19:46:10;;;;;;;0.90;0.90;;;3.00;99.90;;;;;;5040829;28;20440;-68
2022/01/26 19:52:07;;;;;;;0.50;0.50;;;3.00;99.90;;;;;;5062291;28;20420;-68
2022/01/26 19:54:56;;;;;;;6.13;2.83;;;2.90;99.90;;;;;;5059594;28;20435;-68